sensor_id;sensor_type;location;lat;lon;timestamp;pressure;altitude;pressure_sealevel;temperature;humidity
43480;BME280;29067;35.492;-97.520;2023-05-19T00:00:46;96970.32;;;23.74;46.26
43480;BME280;29067;35.492;-97.520;2023-05-19T00:03:15;96976.15;;;22.94;47.14
43480;BME280;29067;35.492;-97.520;2023-05-19T00:05:43;96986.77;;;23.33;47.47
43480;BME280;29067;35.492;-97.520;2023-05-19T00:08:12;96989.82;;;23.10;47.05
43480;BME280;29067;35.492;-97.520;2023-05-19T00:10:43;96989.49;;;23.17;47.09
43480;BME280;29067;35.492;-97.520;2023-05-19T00:13:12;96988.09;;;23.93;46.37
43480;BME280;29067;35.492;-97.520;2023-05-19T00:15:40;96982.04;;;24.17;45.61
43480;BME280;29067;35.492;-97.520;2023-05-19T00:18:08;96982.41;;;24.07;46.61
43480;BME280;29067;35.492;-97.520;2023-05-19T00:20:37;96983.82;;;23.97;46.41
43480;BME280;29067;35.492;-97.520;2023-05-19T00:23:05;96985.35;;;22.59;47.35
43480;BME280;29067;35.492;-97.520;2023-05-19T00:25:33;96983.90;;;24.91;46.12
43480;BME280;29067;35.492;-97.520;2023-05-19T00:28:02;96987.55;;;24.67;45.80
43480;BME280;29067;35.492;-97.520;2023-05-19T00:30:30;96989.53;;;22.99;48.48
43480;BME280;29067;35.492;-97.520;2023-05-19T00:32:59;96986.77;;;23.14;47.44
43480;BME280;29067;35.492;-97.520;2023-05-19T00:35:27;96986.52;;;22.86;47.84
43480;BME280;29067;35.492;-97.520;2023-05-19T00:37:55;96982.56;;;23.27;47.33
43480;BME280;29067;35.492;-97.520;2023-05-19T00:40:25;96977.30;;;23.61;46.16
43480;BME280;29067;35.492;-97.520;2023-05-19T00:42:54;96977.82;;;22.74;47.35
43480;BME280;29067;35.492;-97.520;2023-05-19T00:45:24;96982.57;;;22.88;47.97
43480;BME280;29067;35.492;-97.520;2023-05-19T00:47:51;96984.88;;;24.10;47.01
43480;BME280;29067;35.492;-97.520;2023-05-19T00:50:20;96990.50;;;24.25;46.82
43480;BME280;29067;35.492;-97.520;2023-05-19T00:52:48;96991.08;;;24.32;45.89
43480;BME280;29067;35.492;-97.520;2023-05-19T00:55:17;96991.16;;;23.23;47.24
43480;BME280;29067;35.492;-97.520;2023-05-19T00:57:46;96995.10;;;23.93;46.80
43480;BME280;29067;35.492;-97.520;2023-05-19T01:00:16;96999.53;;;22.44;48.74
43480;BME280;29067;35.492;-97.520;2023-05-19T01:02:44;97003.53;;;22.52;50.48
43480;BME280;29067;35.492;-97.520;2023-05-19T01:05:13;97000.66;;;21.83;50.43
43480;BME280;29067;35.492;-97.520;2023-05-19T01:07:41;97001.89;;;22.55;49.58
43480;BME280;29067;35.492;-97.520;2023-05-19T01:10:10;97009.89;;;23.34;49.31
43480;BME280;29067;35.492;-97.520;2023-05-19T01:12:38;97014.01;;;23.71;47.85
43480;BME280;29067;35.492;-97.520;2023-05-19T01:15:07;97024.52;;;22.15;47.55
43480;BME280;29067;35.492;-97.520;2023-05-19T01:17:40;97033.10;;;21.38;47.77
43480;BME280;29067;35.492;-97.520;2023-05-19T01:20:17;97036.47;;;22.43;47.03
43480;BME280;29067;35.492;-97.520;2023-05-19T01:24:00;97037.35;;;22.99;46.64
43480;BME280;29067;35.492;-97.520;2023-05-19T01:26:51;97050.73;;;22.64;47.43
43480;BME280;29067;35.492;-97.520;2023-05-19T01:29:41;97062.52;;;23.15;47.57
43480;BME280;29067;35.492;-97.520;2023-05-19T01:32:11;97069.01;;;23.11;47.87
43480;BME280;29067;35.492;-97.520;2023-05-19T01:34:44;97063.30;;;23.79;46.96
43480;BME280;29067;35.492;-97.520;2023-05-19T01:37:14;97067.39;;;22.85;47.59
43480;BME280;29067;35.492;-97.520;2023-05-19T01:39:44;97075.69;;;22.15;48.93
43480;BME280;29067;35.492;-97.520;2023-05-19T01:42:18;97082.08;;;22.02;49.29
43480;BME280;29067;35.492;-97.520;2023-05-19T01:44:47;97087.59;;;21.10;50.51
43480;BME280;29067;35.492;-97.520;2023-05-19T01:47:15;97080.08;;;22.69;48.52
43480;BME280;29067;35.492;-97.520;2023-05-19T01:49:44;97073.38;;;22.31;48.68
43480;BME280;29067;35.492;-97.520;2023-05-19T01:52:12;97066.43;;;22.19;49.34
43480;BME280;29067;35.492;-97.520;2023-05-19T01:54:40;97060.57;;;22.97;48.02
43480;BME280;29067;35.492;-97.520;2023-05-19T01:57:18;97057.54;;;22.65;48.96
43480;BME280;29067;35.492;-97.520;2023-05-19T01:59:55;97057.42;;;22.56;48.79
43480;BME280;29067;35.492;-97.520;2023-05-19T02:02:31;97064.08;;;22.20;50.17
43480;BME280;29067;35.492;-97.520;2023-05-19T02:05:08;97075.22;;;22.40;49.56
43480;BME280;29067;35.492;-97.520;2023-05-19T02:07:42;97076.90;;;23.76;48.68
43480;BME280;29067;35.492;-97.520;2023-05-19T02:10:15;97078.17;;;23.89;47.88
43480;BME280;29067;35.492;-97.520;2023-05-19T02:12:47;97069.84;;;23.27;48.84
43480;BME280;29067;35.492;-97.520;2023-05-19T02:15:23;97065.25;;;23.34;48.74
43480;BME280;29067;35.492;-97.520;2023-05-19T02:17:52;97065.31;;;23.48;48.69
43480;BME280;29067;35.492;-97.520;2023-05-19T02:20:21;97071.95;;;23.09;50.21
43480;BME280;29067;35.492;-97.520;2023-05-19T02:22:50;97075.18;;;22.35;51.61
43480;BME280;29067;35.492;-97.520;2023-05-19T02:25:18;97075.74;;;22.95;50.78
43480;BME280;29067;35.492;-97.520;2023-05-19T02:27:47;97084.07;;;22.58;51.14
43480;BME280;29067;35.492;-97.520;2023-05-19T02:30:15;97084.66;;;21.95;52.39
43480;BME280;29067;35.492;-97.520;2023-05-19T02:32:44;97082.16;;;21.74;52.53
43480;BME280;29067;35.492;-97.520;2023-05-19T02:35:12;97084.15;;;22.03;52.78
43480;BME280;29067;35.492;-97.520;2023-05-19T02:37:40;97086.98;;;22.19;52.52
43480;BME280;29067;35.492;-97.520;2023-05-19T02:40:09;97085.68;;;22.30;51.76
43480;BME280;29067;35.492;-97.520;2023-05-19T02:42:37;97082.03;;;21.74;52.85
43480;BME280;29067;35.492;-97.520;2023-05-19T02:45:07;97081.44;;;22.87;52.53
43480;BME280;29067;35.492;-97.520;2023-05-19T02:47:35;97084.19;;;22.20;52.51
43480;BME280;29067;35.492;-97.520;2023-05-19T02:50:04;97086.53;;;21.16;53.30
43480;BME280;29067;35.492;-97.520;2023-05-19T02:52:32;97074.91;;;22.05;51.77
43480;BME280;29067;35.492;-97.520;2023-05-19T02:55:01;97073.36;;;21.21;52.74
43480;BME280;29067;35.492;-97.520;2023-05-19T02:57:29;97073.21;;;21.41;52.12
43480;BME280;29067;35.492;-97.520;2023-05-19T03:00:05;97082.07;;;21.50;52.71
43480;BME280;29067;35.492;-97.520;2023-05-19T03:02:48;97073.59;;;21.94;51.98
43480;BME280;29067;35.492;-97.520;2023-05-19T03:05:21;97072.82;;;22.10;51.16
43480;BME280;29067;35.492;-97.520;2023-05-19T03:07:48;97079.06;;;22.75;50.36
43480;BME280;29067;35.492;-97.520;2023-05-19T03:10:17;97079.06;;;22.87;50.89
43480;BME280;29067;35.492;-97.520;2023-05-19T03:12:45;97080.03;;;21.55;51.57
43480;BME280;29067;35.492;-97.520;2023-05-19T03:15:13;97083.37;;;21.47;52.41
43480;BME280;29067;35.492;-97.520;2023-05-19T03:17:41;97088.79;;;20.69;53.82
43480;BME280;29067;35.492;-97.520;2023-05-19T03:20:18;97090.04;;;20.62;53.66
43480;BME280;29067;35.492;-97.520;2023-05-19T03:22:46;97099.25;;;21.82;53.58
43480;BME280;29067;35.492;-97.520;2023-05-19T03:25:14;97102.20;;;21.18;54.98
43480;BME280;29067;35.492;-97.520;2023-05-19T03:27:43;97100.09;;;21.42;54.76
43480;BME280;29067;35.492;-97.520;2023-05-19T03:30:11;97101.46;;;21.13;55.71
43480;BME280;29067;35.492;-97.520;2023-05-19T03:32:40;97106.36;;;20.05;57.97
43480;BME280;29067;35.492;-97.520;2023-05-19T03:35:08;97111.39;;;20.59;58.11
43480;BME280;29067;35.492;-97.520;2023-05-19T03:37:42;97117.29;;;20.63;57.44
43480;BME280;29067;35.492;-97.520;2023-05-19T03:40:12;97113.48;;;21.00;57.20
43480;BME280;29067;35.492;-97.520;2023-05-19T03:42:40;97105.57;;;21.52;56.69
43480;BME280;29067;35.492;-97.520;2023-05-19T03:45:10;97102.77;;;21.10;57.16
43480;BME280;29067;35.492;-97.520;2023-05-19T03:47:38;97096.87;;;20.87;58.20
43480;BME280;29067;35.492;-97.520;2023-05-19T03:50:08;97092.01;;;21.41;57.48
43480;BME280;29067;35.492;-97.520;2023-05-19T03:52:37;97087.86;;;21.60;56.72
43480;BME280;29067;35.492;-97.520;2023-05-19T03:55:10;97087.40;;;21.27;57.16
43480;BME280;29067;35.492;-97.520;2023-05-19T03:57:39;97098.27;;;20.99;57.73
43480;BME280;29067;35.492;-97.520;2023-05-19T04:00:08;97107.19;;;21.28;57.37
43480;BME280;29067;35.492;-97.520;2023-05-19T04:02:36;97109.15;;;20.10;59.44
43480;BME280;29067;35.492;-97.520;2023-05-19T04:05:05;97102.38;;;20.40;60.18
43480;BME280;29067;35.492;-97.520;2023-05-19T04:07:33;97090.58;;;18.64;64.60
43480;BME280;29067;35.492;-97.520;2023-05-19T04:10:03;97081.08;;;19.75;62.02
43480;BME280;29067;35.492;-97.520;2023-05-19T04:12:31;97074.30;;;20.62;60.26
43480;BME280;29067;35.492;-97.520;2023-05-19T04:15:02;97068.80;;;18.76;64.98
43480;BME280;29067;35.492;-97.520;2023-05-19T04:17:30;97077.32;;;20.62;61.15
43480;BME280;29067;35.492;-97.520;2023-05-19T04:19:58;97082.71;;;19.86;62.70
43480;BME280;29067;35.492;-97.520;2023-05-19T04:22:26;97074.03;;;20.68;61.24
43480;BME280;29067;35.492;-97.520;2023-05-19T04:25:00;97072.82;;;20.21;60.75
43480;BME280;29067;35.492;-97.520;2023-05-19T04:27:33;97072.31;;;21.22;58.72
43480;BME280;29067;35.492;-97.520;2023-05-19T04:30:01;97073.27;;;20.85;59.19
43480;BME280;29067;35.492;-97.520;2023-05-19T04:32:34;97076.86;;;21.72;57.67
43480;BME280;29067;35.492;-97.520;2023-05-19T04:35:02;97083.09;;;20.96;58.35
43480;BME280;29067;35.492;-97.520;2023-05-19T04:37:35;97088.64;;;21.65;57.95
43480;BME280;29067;35.492;-97.520;2023-05-19T04:40:04;97095.06;;;20.83;58.61
43480;BME280;29067;35.492;-97.520;2023-05-19T04:42:32;97099.42;;;21.04;57.68
43480;BME280;29067;35.492;-97.520;2023-05-19T04:45:00;97104.32;;;21.07;56.80
43480;BME280;29067;35.492;-97.520;2023-05-19T04:47:29;97107.67;;;21.73;56.20
43480;BME280;29067;35.492;-97.520;2023-05-19T04:49:57;97107.36;;;21.14;57.02
43480;BME280;29067;35.492;-97.520;2023-05-19T04:52:26;97109.27;;;21.77;56.14
43480;BME280;29067;35.492;-97.520;2023-05-19T04:54:54;97102.86;;;22.32;55.51
43480;BME280;29067;35.492;-97.520;2023-05-19T04:57:23;97100.38;;;21.33;57.10
43480;BME280;29067;35.492;-97.520;2023-05-19T04:59:52;97093.00;;;21.03;56.12
43480;BME280;29067;35.492;-97.520;2023-05-19T05:02:21;97093.71;;;20.75;56.99
43480;BME280;29067;35.492;-97.520;2023-05-19T05:04:50;97091.76;;;21.19;58.10
43480;BME280;29067;35.492;-97.520;2023-05-19T05:07:23;97089.37;;;20.66;57.30
43480;BME280;29067;35.492;-97.520;2023-05-19T05:09:51;97090.99;;;20.70;58.87
43480;BME280;29067;35.492;-97.520;2023-05-19T05:12:21;97090.61;;;20.21;59.01
43480;BME280;29067;35.492;-97.520;2023-05-19T05:14:49;97090.94;;;20.97;58.76
43480;BME280;29067;35.492;-97.520;2023-05-19T05:17:18;97089.11;;;21.74;57.56
43480;BME280;29067;35.492;-97.520;2023-05-19T05:19:46;97085.10;;;20.14;60.01
43480;BME280;29067;35.492;-97.520;2023-05-19T05:22:15;97078.34;;;21.58;57.85
43480;BME280;29067;35.492;-97.520;2023-05-19T05:24:44;97078.80;;;20.68;58.45
43480;BME280;29067;35.492;-97.520;2023-05-19T05:27:12;97082.24;;;21.27;58.11
43480;BME280;29067;35.492;-97.520;2023-05-19T05:29:45;97079.24;;;21.04;58.15
43480;BME280;29067;35.492;-97.520;2023-05-19T05:32:14;97082.23;;;20.84;58.72
43480;BME280;29067;35.492;-97.520;2023-05-19T05:34:42;97083.64;;;21.38;57.33
43480;BME280;29067;35.492;-97.520;2023-05-19T05:37:10;97083.82;;;21.17;57.74
43480;BME280;29067;35.492;-97.520;2023-05-19T05:39:38;97086.03;;;20.45;58.83
43480;BME280;29067;35.492;-97.520;2023-05-19T05:42:06;97084.67;;;21.27;58.61
43480;BME280;29067;35.492;-97.520;2023-05-19T05:44:34;97079.42;;;22.00;56.41
43480;BME280;29067;35.492;-97.520;2023-05-19T05:47:04;97086.37;;;20.33;58.98
43480;BME280;29067;35.492;-97.520;2023-05-19T05:49:33;97083.64;;;21.11;57.98
43480;BME280;29067;35.492;-97.520;2023-05-19T05:52:03;97082.13;;;21.32;57.82
43480;BME280;29067;35.492;-97.520;2023-05-19T05:54:31;97083.44;;;21.71;57.83
43480;BME280;29067;35.492;-97.520;2023-05-19T05:57:00;97084.71;;;20.71;58.88
43480;BME280;29067;35.492;-97.520;2023-05-19T05:59:28;97083.42;;;21.36;57.97
43480;BME280;29067;35.492;-97.520;2023-05-19T06:01:55;97083.94;;;21.21;58.99
43480;BME280;29067;35.492;-97.520;2023-05-19T06:04:23;97083.23;;;19.73;60.70
43480;BME280;29067;35.492;-97.520;2023-05-19T06:06:52;97076.27;;;21.28;58.77
43480;BME280;29067;35.492;-97.520;2023-05-19T06:09:21;97072.71;;;20.53;59.49
43480;BME280;29067;35.492;-97.520;2023-05-19T06:11:48;97066.03;;;21.51;59.38
43480;BME280;29067;35.492;-97.520;2023-05-19T06:14:16;97068.59;;;19.81;62.23
43480;BME280;29067;35.492;-97.520;2023-05-19T06:16:44;97065.37;;;21.38;59.54
43480;BME280;29067;35.492;-97.520;2023-05-19T06:19:13;97073.48;;;20.29;61.79
43480;BME280;29067;35.492;-97.520;2023-05-19T06:21:40;97075.80;;;20.97;59.54
43480;BME280;29067;35.492;-97.520;2023-05-19T06:24:09;97068.66;;;20.89;60.66
43480;BME280;29067;35.492;-97.520;2023-05-19T06:26:37;97069.19;;;19.92;61.82
43480;BME280;29067;35.492;-97.520;2023-05-19T06:29:06;97067.32;;;19.56;63.01
43480;BME280;29067;35.492;-97.520;2023-05-19T06:31:33;97063.62;;;19.54;64.03
43480;BME280;29067;35.492;-97.520;2023-05-19T06:34:06;97054.17;;;19.29;65.49
43480;BME280;29067;35.492;-97.520;2023-05-19T06:36:34;97053.09;;;20.02;63.23
43480;BME280;29067;35.492;-97.520;2023-05-19T06:39:02;97050.17;;;19.92;63.73
43480;BME280;29067;35.492;-97.520;2023-05-19T06:41:30;97048.67;;;19.97;64.49
43480;BME280;29067;35.492;-97.520;2023-05-19T06:43:59;97045.44;;;19.59;65.11
43480;BME280;29067;35.492;-97.520;2023-05-19T06:46:38;97048.31;;;20.76;62.92
43480;BME280;29067;35.492;-97.520;2023-05-19T06:49:06;97051.81;;;20.62;61.94
43480;BME280;29067;35.492;-97.520;2023-05-19T06:51:35;97060.88;;;21.10;60.70
43480;BME280;29067;35.492;-97.520;2023-05-19T06:54:03;97062.39;;;20.58;61.43
43480;BME280;29067;35.492;-97.520;2023-05-19T06:56:32;97062.40;;;19.91;62.45
43480;BME280;29067;35.492;-97.520;2023-05-19T06:59:01;97060.72;;;20.86;60.68
43480;BME280;29067;35.492;-97.520;2023-05-19T07:01:28;97058.27;;;21.55;60.39
43480;BME280;29067;35.492;-97.520;2023-05-19T07:03:57;97051.51;;;20.31;61.03
43480;BME280;29067;35.492;-97.520;2023-05-19T07:06:25;97043.83;;;20.96;61.58
43480;BME280;29067;35.492;-97.520;2023-05-19T07:08:53;97040.38;;;20.24;61.87
43480;BME280;29067;35.492;-97.520;2023-05-19T07:11:21;97034.52;;;20.44;62.11
43480;BME280;29067;35.492;-97.520;2023-05-19T07:13:49;97032.01;;;20.58;62.16
43480;BME280;29067;35.492;-97.520;2023-05-19T07:16:22;97030.46;;;20.06;62.09
43480;BME280;29067;35.492;-97.520;2023-05-19T07:18:50;97025.44;;;21.32;60.60
43480;BME280;29067;35.492;-97.520;2023-05-19T07:21:19;97023.85;;;20.49;61.35
43480;BME280;29067;35.492;-97.520;2023-05-19T07:23:48;97026.14;;;19.74;62.82
43480;BME280;29067;35.492;-97.520;2023-05-19T07:26:16;97022.61;;;19.46;63.65
43480;BME280;29067;35.492;-97.520;2023-05-19T07:28:44;97017.49;;;19.21;64.69
43480;BME280;29067;35.492;-97.520;2023-05-19T07:31:12;97015.97;;;20.31;62.91
43480;BME280;29067;35.492;-97.520;2023-05-19T07:33:41;97015.45;;;19.18;64.27
43480;BME280;29067;35.492;-97.520;2023-05-19T07:36:09;97009.57;;;19.20;65.61
43480;BME280;29067;35.492;-97.520;2023-05-19T07:38:36;97007.26;;;19.46;64.94
43480;BME280;29067;35.492;-97.520;2023-05-19T07:41:05;97002.76;;;19.63;65.27
43480;BME280;29067;35.492;-97.520;2023-05-19T07:43:33;97000.41;;;18.79;67.60
43480;BME280;29067;35.492;-97.520;2023-05-19T07:46:02;97001.29;;;19.63;64.42
43480;BME280;29067;35.492;-97.520;2023-05-19T07:48:30;96999.79;;;19.37;64.15
43480;BME280;29067;35.492;-97.520;2023-05-19T07:50:59;97001.87;;;19.50;63.90
43480;BME280;29067;35.492;-97.520;2023-05-19T07:53:27;96993.30;;;20.48;61.63
43480;BME280;29067;35.492;-97.520;2023-05-19T07:55:55;96989.06;;;19.83;63.45
43480;BME280;29067;35.492;-97.520;2023-05-19T07:58:29;96981.11;;;19.58;64.28
43480;BME280;29067;35.492;-97.520;2023-05-19T08:00:57;96978.36;;;19.78;63.52
43480;BME280;29067;35.492;-97.520;2023-05-19T08:03:27;96972.22;;;19.63;63.07
43480;BME280;29067;35.492;-97.520;2023-05-19T08:05:56;96970.87;;;19.37;64.59
43480;BME280;29067;35.492;-97.520;2023-05-19T08:08:24;96971.48;;;18.65;66.28
43480;BME280;29067;35.492;-97.520;2023-05-19T08:10:52;96973.34;;;19.45;64.75
43480;BME280;29067;35.492;-97.520;2023-05-19T08:13:19;96971.11;;;19.52;64.28
43480;BME280;29067;35.492;-97.520;2023-05-19T08:15:52;96977.26;;;19.82;64.64
43480;BME280;29067;35.492;-97.520;2023-05-19T08:18:22;96982.69;;;19.74;63.74
43480;BME280;29067;35.492;-97.520;2023-05-19T08:20:50;96979.41;;;20.99;62.32
43480;BME280;29067;35.492;-97.520;2023-05-19T08:23:18;96985.37;;;19.66;63.40
43480;BME280;29067;35.492;-97.520;2023-05-19T08:25:47;96985.05;;;19.36;64.13
43480;BME280;29067;35.492;-97.520;2023-05-19T08:28:15;96978.04;;;20.08;62.49
43480;BME280;29067;35.492;-97.520;2023-05-19T08:30:44;96970.07;;;18.21;65.98
43480;BME280;29067;35.492;-97.520;2023-05-19T08:33:12;96964.07;;;18.19;66.53
43480;BME280;29067;35.492;-97.520;2023-05-19T08:35:40;96957.63;;;18.84;67.06
43480;BME280;29067;35.492;-97.520;2023-05-19T08:38:09;96953.71;;;18.59;68.68
43480;BME280;29067;35.492;-97.520;2023-05-19T08:40:41;96950.33;;;19.03;66.56
43480;BME280;29067;35.492;-97.520;2023-05-19T08:43:10;96950.34;;;18.55;68.54
43480;BME280;29067;35.492;-97.520;2023-05-19T08:45:42;96944.77;;;18.89;67.72
43480;BME280;29067;35.492;-97.520;2023-05-19T08:48:10;96943.84;;;19.07;65.30
43480;BME280;29067;35.492;-97.520;2023-05-19T08:50:40;96946.61;;;17.88;68.14
43480;BME280;29067;35.492;-97.520;2023-05-19T08:53:18;96946.36;;;20.19;65.26
43480;BME280;29067;35.492;-97.520;2023-05-19T08:55:53;96956.11;;;19.28;64.97
43480;BME280;29067;35.492;-97.520;2023-05-19T08:58:22;96953.29;;;20.27;63.47
43480;BME280;29067;35.492;-97.520;2023-05-19T09:00:51;96943.47;;;20.07;63.11
43480;BME280;29067;35.492;-97.520;2023-05-19T09:03:25;96945.34;;;19.94;63.90
43480;BME280;29067;35.492;-97.520;2023-05-19T09:05:54;96954.81;;;19.95;64.48
43480;BME280;29067;35.492;-97.520;2023-05-19T09:08:27;96945.59;;;19.87;63.53
43480;BME280;29067;35.492;-97.520;2023-05-19T09:10:55;96943.41;;;19.71;64.33
43480;BME280;29067;35.492;-97.520;2023-05-19T09:13:23;96938.49;;;20.71;63.42
43480;BME280;29067;35.492;-97.520;2023-05-19T09:15:52;96932.12;;;19.24;64.61
43480;BME280;29067;35.492;-97.520;2023-05-19T09:18:23;96923.22;;;20.05;65.33
43480;BME280;29067;35.492;-97.520;2023-05-19T09:20:57;96913.44;;;17.95;71.34
43480;BME280;29067;35.492;-97.520;2023-05-19T09:23:27;96905.64;;;18.84;69.25
43480;BME280;29067;35.492;-97.520;2023-05-19T09:25:56;96901.16;;;18.75;69.82
43480;BME280;29067;35.492;-97.520;2023-05-19T09:28:26;96897.91;;;18.27;71.32
43480;BME280;29067;35.492;-97.520;2023-05-19T09:30:59;96903.87;;;18.96;69.58
43480;BME280;29067;35.492;-97.520;2023-05-19T09:33:28;96914.74;;;19.80;65.57
43480;BME280;29067;35.492;-97.520;2023-05-19T09:35:57;96932.68;;;19.67;65.45
43480;BME280;29067;35.492;-97.520;2023-05-19T09:38:30;96946.73;;;19.83;64.56
43480;BME280;29067;35.492;-97.520;2023-05-19T09:40:59;96960.38;;;20.51;63.32
43480;BME280;29067;35.492;-97.520;2023-05-19T09:43:28;96975.65;;;19.84;64.16
43480;BME280;29067;35.492;-97.520;2023-05-19T09:45:59;97077.85;;;18.12;69.24
43480;BME280;29067;35.492;-97.520;2023-05-19T09:48:27;97078.78;;;17.34;76.69
43480;BME280;29067;35.492;-97.520;2023-05-19T09:50:56;97098.94;;;15.11;98.57
43480;BME280;29067;35.492;-97.520;2023-05-19T09:53:29;97054.22;;;15.60;96.19
43480;BME280;29067;35.492;-97.520;2023-05-19T09:56:07;97060.30;;;14.78;100.00
43480;BME280;29067;35.492;-97.520;2023-05-19T09:58:35;97087.53;;;14.69;100.00
43480;BME280;29067;35.492;-97.520;2023-05-19T10:01:04;97126.78;;;13.92;100.00
43480;BME280;29067;35.492;-97.520;2023-05-19T10:03:33;97117.07;;;14.42;100.00
43480;BME280;29067;35.492;-97.520;2023-05-19T10:06:02;97105.12;;;13.20;100.00
43480;BME280;29067;35.492;-97.520;2023-05-19T10:08:33;97107.45;;;13.57;100.00
43480;BME280;29067;35.492;-97.520;2023-05-19T10:11:02;97104.98;;;14.66;100.00
43480;BME280;29067;35.492;-97.520;2023-05-19T10:13:30;97118.07;;;14.10;100.00
43480;BME280;29067;35.492;-97.520;2023-05-19T10:15:58;97125.41;;;14.43;100.00
43480;BME280;29067;35.492;-97.520;2023-05-19T10:18:27;97133.58;;;13.84;100.00
43480;BME280;29067;35.492;-97.520;2023-05-19T10:20:56;97130.65;;;13.67;100.00
43480;BME280;29067;35.492;-97.520;2023-05-19T10:23:25;97122.93;;;14.54;100.00
43480;BME280;29067;35.492;-97.520;2023-05-19T10:25:56;97129.10;;;14.62;100.00
43480;BME280;29067;35.492;-97.520;2023-05-19T10:28:30;97117.01;;;14.46;100.00
43480;BME280;29067;35.492;-97.520;2023-05-19T10:31:03;97108.45;;;15.16;100.00
43480;BME280;29067;35.492;-97.520;2023-05-19T10:33:45;97106.51;;;14.60;100.00
43480;BME280;29067;35.492;-97.520;2023-05-19T10:36:32;97098.97;;;14.38;100.00
43480;BME280;29067;35.492;-97.520;2023-05-19T10:39:10;97067.66;;;14.51;100.00
43480;BME280;29067;35.492;-97.520;2023-05-19T10:41:45;97073.10;;;14.99;100.00
43480;BME280;29067;35.492;-97.520;2023-05-19T10:44:33;97088.15;;;15.58;100.00
43480;BME280;29067;35.492;-97.520;2023-05-19T10:47:05;97096.38;;;15.46;100.00
43480;BME280;29067;35.492;-97.520;2023-05-19T10:49:34;97112.19;;;15.87;97.69
43480;BME280;29067;35.492;-97.520;2023-05-19T10:52:03;97115.62;;;16.12;100.00
43480;BME280;29067;35.492;-97.520;2023-05-19T10:54:46;97112.60;;;17.65;90.02
43480;BME280;29067;35.492;-97.520;2023-05-19T10:57:15;97111.41;;;16.14;97.21
43480;BME280;29067;35.492;-97.520;2023-05-19T10:59:44;97108.56;;;18.32;88.58
43480;BME280;29067;35.492;-97.520;2023-05-19T11:03:16;97128.76;;;16.58;88.43
43480;BME280;29067;35.492;-97.520;2023-05-19T11:05:44;97108.88;;;16.23;91.80
43480;BME280;29067;35.492;-97.520;2023-05-19T11:08:12;97100.45;;;16.43;92.33
43480;BME280;29067;35.492;-97.520;2023-05-19T11:10:43;97103.66;;;17.48;87.08
43480;BME280;29067;35.492;-97.520;2023-05-19T11:13:18;97128.21;;;16.94;88.66
43480;BME280;29067;35.492;-97.520;2023-05-19T11:15:46;97121.93;;;16.36;89.69
43480;BME280;29067;35.492;-97.520;2023-05-19T11:18:14;97123.56;;;15.64;93.05
43480;BME280;29067;35.492;-97.520;2023-05-19T11:20:43;97123.75;;;17.55;86.70
43480;BME280;29067;35.492;-97.520;2023-05-19T11:23:21;97126.14;;;16.16;89.70
43480;BME280;29067;35.492;-97.520;2023-05-19T11:25:52;97122.30;;;17.06;86.48
43480;BME280;29067;35.492;-97.520;2023-05-19T11:28:21;97114.75;;;18.11;82.83
43480;BME280;29067;35.492;-97.520;2023-05-19T11:30:52;97126.70;;;17.36;84.24
43480;BME280;29067;35.492;-97.520;2023-05-19T11:33:21;97131.99;;;17.70;80.91
43480;BME280;29067;35.492;-97.520;2023-05-19T11:35:50;97128.77;;;18.25;79.86
43480;BME280;29067;35.492;-97.520;2023-05-19T11:38:19;97129.76;;;17.19;81.69
43480;BME280;29067;35.492;-97.520;2023-05-19T11:40:48;97131.25;;;15.89;87.56
43480;BME280;29067;35.492;-97.520;2023-05-19T11:43:16;97132.85;;;17.95;81.39
43480;BME280;29067;35.492;-97.520;2023-05-19T11:45:45;97135.98;;;17.92;81.57
43480;BME280;29067;35.492;-97.520;2023-05-19T11:48:14;97134.70;;;17.11;85.07
43480;BME280;29067;35.492;-97.520;2023-05-19T11:50:42;97130.89;;;17.43;83.27
43480;BME280;29067;35.492;-97.520;2023-05-19T11:53:12;97125.62;;;17.61;84.53
43480;BME280;29067;35.492;-97.520;2023-05-19T11:55:43;97121.39;;;18.16;81.35
43480;BME280;29067;35.492;-97.520;2023-05-19T11:58:12;97116.33;;;18.08;80.81
43480;BME280;29067;35.492;-97.520;2023-05-19T12:00:41;97122.65;;;17.73;81.01
43480;BME280;29067;35.492;-97.520;2023-05-19T12:03:09;97127.73;;;18.21;78.63
43480;BME280;29067;35.492;-97.520;2023-05-19T12:05:42;97120.55;;;18.04;79.31
43480;BME280;29067;35.492;-97.520;2023-05-19T12:08:11;97126.88;;;18.02;79.39
43480;BME280;29067;35.492;-97.520;2023-05-19T12:10:39;97141.54;;;16.11;85.45
43480;BME280;29067;35.492;-97.520;2023-05-19T12:13:08;97138.51;;;18.54;79.10
43480;BME280;29067;35.492;-97.520;2023-05-19T12:15:36;97139.99;;;18.23;79.10
43480;BME280;29067;35.492;-97.520;2023-05-19T12:18:03;97140.72;;;18.64;78.75
43480;BME280;29067;35.492;-97.520;2023-05-19T12:20:32;97149.50;;;17.42;82.22
43480;BME280;29067;35.492;-97.520;2023-05-19T12:23:02;97156.92;;;16.23;87.84
43480;BME280;29067;35.492;-97.520;2023-05-19T12:25:30;97156.31;;;17.38;84.88
43480;BME280;29067;35.492;-97.520;2023-05-19T12:27:58;97169.18;;;17.32;84.35
43480;BME280;29067;35.492;-97.520;2023-05-19T12:30:28;97193.67;;;17.94;82.65
43480;BME280;29067;35.492;-97.520;2023-05-19T12:32:56;97198.87;;;18.87;79.64
43480;BME280;29067;35.492;-97.520;2023-05-19T12:35:26;97200.43;;;17.96;80.81
43480;BME280;29067;35.492;-97.520;2023-05-19T12:37:55;97200.51;;;18.42;79.62
43480;BME280;29067;35.492;-97.520;2023-05-19T12:40:23;97196.10;;;17.01;85.59
43480;BME280;29067;35.492;-97.520;2023-05-19T12:42:55;97188.56;;;18.61;79.10
43480;BME280;29067;35.492;-97.520;2023-05-19T12:45:23;97197.52;;;18.42;80.83
43480;BME280;29067;35.492;-97.520;2023-05-19T12:47:52;97202.59;;;17.56;81.43
43480;BME280;29067;35.492;-97.520;2023-05-19T12:50:20;97216.47;;;17.42;82.92
43480;BME280;29067;35.492;-97.520;2023-05-19T12:52:49;97220.49;;;17.95;81.42
43480;BME280;29067;35.492;-97.520;2023-05-19T12:55:18;97217.77;;;18.18;79.53